sensor_id;sensor_type;location;lat;lon;timestamp;P1;durP1;ratioP1;P2;durP2;ratioP2
15155;SDS011;7678;50.058;8.306;2023-03-23T00:00:05;3.33;;;1.20;;
15155;SDS011;7678;50.058;8.306;2023-03-23T00:02:35;4.10;;;1.70;;
15155;SDS011;7678;50.058;8.306;2023-03-23T00:05:03;3.13;;;1.47;;
15155;SDS011;7678;50.058;8.306;2023-03-23T00:07:32;4.23;;;1.30;;
15155;SDS011;7678;50.058;8.306;2023-03-23T00:10:00;2.73;;;1.30;;
15155;SDS011;7678;50.058;8.306;2023-03-23T00:12:29;2.10;;;1.20;;
15155;SDS011;7678;50.058;8.306;2023-03-23T00:15:02;1.97;;;1.13;;
15155;SDS011;7678;50.058;8.306;2023-03-23T00:17:31;3.27;;;1.40;;
15155;SDS011;7678;50.058;8.306;2023-03-23T00:19:59;3.57;;;1.57;;
15155;SDS011;7678;50.058;8.306;2023-03-23T00:22:30;4.13;;;1.20;;
15155;SDS011;7678;50.058;8.306;2023-03-23T00:25:02;2.47;;;1.40;;
15155;SDS011;7678;50.058;8.306;2023-03-23T00:27:31;2.27;;;1.43;;
15155;SDS011;7678;50.058;8.306;2023-03-23T00:29:58;2.07;;;1.20;;
15155;SDS011;7678;50.058;8.306;2023-03-23T00:32:25;3.37;;;1.30;;
15155;SDS011;7678;50.058;8.306;2023-03-23T00:34:53;1.73;;;1.17;;
15155;SDS011;7678;50.058;8.306;2023-03-23T00:37:21;2.00;;;1.10;;
15155;SDS011;7678;50.058;8.306;2023-03-23T00:39:49;3.70;;;1.07;;
15155;SDS011;7678;50.058;8.306;2023-03-23T00:42:17;4.57;;;1.27;;
15155;SDS011;7678;50.058;8.306;2023-03-23T00:44:45;2.43;;;1.07;;
15155;SDS011;7678;50.058;8.306;2023-03-23T00:47:12;3.13;;;1.33;;
15155;SDS011;7678;50.058;8.306;2023-03-23T00:49:40;3.40;;;1.30;;
15155;SDS011;7678;50.058;8.306;2023-03-23T00:52:09;2.90;;;1.30;;
15155;SDS011;7678;50.058;8.306;2023-03-23T00:54:37;3.30;;;1.00;;
15155;SDS011;7678;50.058;8.306;2023-03-23T00:57:04;3.60;;;1.33;;
15155;SDS011;7678;50.058;8.306;2023-03-23T00:59:31;1.63;;;1.10;;
15155;SDS011;7678;50.058;8.306;2023-03-23T01:02:00;3.50;;;1.20;;
15155;SDS011;7678;50.058;8.306;2023-03-23T01:04:27;2.37;;;1.13;;
15155;SDS011;7678;50.058;8.306;2023-03-23T01:06:56;4.00;;;1.30;;
15155;SDS011;7678;50.058;8.306;2023-03-23T01:09:25;1.57;;;1.00;;
15155;SDS011;7678;50.058;8.306;2023-03-23T01:11:53;1.77;;;1.07;;
15155;SDS011;7678;50.058;8.306;2023-03-23T01:14:22;2.83;;;1.10;;
15155;SDS011;7678;50.058;8.306;2023-03-23T01:16:50;3.00;;;1.30;;
15155;SDS011;7678;50.058;8.306;2023-03-23T01:19:19;2.83;;;1.43;;
15155;SDS011;7678;50.058;8.306;2023-03-23T01:21:45;2.23;;;1.07;;
15155;SDS011;7678;50.058;8.306;2023-03-23T01:24:12;4.03;;;1.40;;
15155;SDS011;7678;50.058;8.306;2023-03-23T01:26:40;2.60;;;1.37;;
15155;SDS011;7678;50.058;8.306;2023-03-23T01:29:07;1.83;;;1.10;;
15155;SDS011;7678;50.058;8.306;2023-03-23T01:31:34;3.90;;;1.77;;
15155;SDS011;7678;50.058;8.306;2023-03-23T01:34:02;3.33;;;1.37;;
15155;SDS011;7678;50.058;8.306;2023-03-23T01:36:30;2.33;;;1.20;;
15155;SDS011;7678;50.058;8.306;2023-03-23T01:38:59;4.00;;;1.97;;
15155;SDS011;7678;50.058;8.306;2023-03-23T01:41:28;4.73;;;1.60;;
15155;SDS011;7678;50.058;8.306;2023-03-23T01:43:57;2.13;;;1.30;;
15155;SDS011;7678;50.058;8.306;2023-03-23T01:46:26;2.03;;;1.20;;
15155;SDS011;7678;50.058;8.306;2023-03-23T01:48:54;2.20;;;1.23;;
15155;SDS011;7678;50.058;8.306;2023-03-23T01:51:24;2.00;;;1.13;;
15155;SDS011;7678;50.058;8.306;2023-03-23T01:53:54;1.70;;;1.20;;
15155;SDS011;7678;50.058;8.306;2023-03-23T01:56:27;2.30;;;1.30;;
15155;SDS011;7678;50.058;8.306;2023-03-23T01:58:58;2.40;;;1.43;;
15155;SDS011;7678;50.058;8.306;2023-03-23T02:01:25;3.60;;;1.60;;
15155;SDS011;7678;50.058;8.306;2023-03-23T02:03:54;4.53;;;1.50;;
15155;SDS011;7678;50.058;8.306;2023-03-23T02:06:23;4.13;;;1.40;;
15155;SDS011;7678;50.058;8.306;2023-03-23T02:08:54;2.23;;;1.30;;
15155;SDS011;7678;50.058;8.306;2023-03-23T02:11:22;3.40;;;1.13;;
15155;SDS011;7678;50.058;8.306;2023-03-23T02:13:49;1.93;;;1.20;;
15155;SDS011;7678;50.058;8.306;2023-03-23T02:16:20;2.47;;;1.13;;
15155;SDS011;7678;50.058;8.306;2023-03-23T02:18:57;2.03;;;1.03;;
15155;SDS011;7678;50.058;8.306;2023-03-23T02:21:36;3.77;;;1.30;;
15155;SDS011;7678;50.058;8.306;2023-03-23T02:27:29;4.73;;;1.23;;
15155;SDS011;7678;50.058;8.306;2023-03-23T02:30:28;2.40;;;1.20;;
15155;SDS011;7678;50.058;8.306;2023-03-23T02:33:19;2.00;;;1.13;;
15155;SDS011;7678;50.058;8.306;2023-03-23T02:36:03;1.03;;;0.93;;
15155;SDS011;7678;50.058;8.306;2023-03-23T02:38:38;1.53;;;1.10;;
15155;SDS011;7678;50.058;8.306;2023-03-23T02:41:15;2.17;;;1.20;;
15155;SDS011;7678;50.058;8.306;2023-03-23T02:43:45;4.30;;;1.40;;
15155;SDS011;7678;50.058;8.306;2023-03-23T02:46:13;2.30;;;1.30;;
15155;SDS011;7678;50.058;8.306;2023-03-23T02:48:44;2.00;;;1.30;;
15155;SDS011;7678;50.058;8.306;2023-03-23T02:51:13;1.73;;;1.20;;
15155;SDS011;7678;50.058;8.306;2023-03-23T02:53:42;3.33;;;1.40;;
15155;SDS011;7678;50.058;8.306;2023-03-23T02:56:10;2.73;;;1.20;;
15155;SDS011;7678;50.058;8.306;2023-03-23T02:58:39;2.40;;;1.30;;
15155;SDS011;7678;50.058;8.306;2023-03-23T03:01:44;2.33;;;1.53;;
15155;SDS011;7678;50.058;8.306;2023-03-23T03:04:22;1.30;;;1.07;;
15155;SDS011;7678;50.058;8.306;2023-03-23T03:09:50;3.13;;;1.40;;
15155;SDS011;7678;50.058;8.306;2023-03-23T03:12:24;3.57;;;1.37;;
15155;SDS011;7678;50.058;8.306;2023-03-23T03:14:59;2.53;;;1.40;;
15155;SDS011;7678;50.058;8.306;2023-03-23T03:17:37;3.10;;;1.50;;
15155;SDS011;7678;50.058;8.306;2023-03-23T03:20:11;2.60;;;1.60;;
15155;SDS011;7678;50.058;8.306;2023-03-23T03:22:39;2.77;;;1.47;;
15155;SDS011;7678;50.058;8.306;2023-03-23T03:25:10;1.40;;;1.30;;
15155;SDS011;7678;50.058;8.306;2023-03-23T03:27:41;2.87;;;1.63;;
15155;SDS011;7678;50.058;8.306;2023-03-23T03:30:11;4.13;;;1.30;;
15155;SDS011;7678;50.058;8.306;2023-03-23T03:32:45;1.87;;;1.30;;
15155;SDS011;7678;50.058;8.306;2023-03-23T03:35:16;2.10;;;1.30;;
15155;SDS011;7678;50.058;8.306;2023-03-23T03:37:43;3.00;;;1.50;;
15155;SDS011;7678;50.058;8.306;2023-03-23T03:40:12;2.30;;;1.70;;
15155;SDS011;7678;50.058;8.306;2023-03-23T03:42:41;3.33;;;1.63;;
15155;SDS011;7678;50.058;8.306;2023-03-23T03:45:10;2.67;;;1.63;;
15155;SDS011;7678;50.058;8.306;2023-03-23T03:47:38;3.50;;;1.80;;
15155;SDS011;7678;50.058;8.306;2023-03-23T03:50:07;1.97;;;1.40;;
15155;SDS011;7678;50.058;8.306;2023-03-23T03:52:35;3.10;;;1.40;;
15155;SDS011;7678;50.058;8.306;2023-03-23T03:55:03;2.87;;;1.50;;
15155;SDS011;7678;50.058;8.306;2023-03-23T03:57:32;2.90;;;1.57;;
15155;SDS011;7678;50.058;8.306;2023-03-23T03:59:59;2.67;;;1.63;;
15155;SDS011;7678;50.058;8.306;2023-03-23T04:02:26;3.37;;;1.90;;
15155;SDS011;7678;50.058;8.306;2023-03-23T04:04:53;3.23;;;1.50;;
15155;SDS011;7678;50.058;8.306;2023-03-23T04:07:21;2.77;;;1.40;;
15155;SDS011;7678;50.058;8.306;2023-03-23T04:09:51;2.07;;;1.53;;
15155;SDS011;7678;50.058;8.306;2023-03-23T04:12:18;1.83;;;1.40;;
15155;SDS011;7678;50.058;8.306;2023-03-23T04:14:45;2.17;;;1.33;;
15155;SDS011;7678;50.058;8.306;2023-03-23T04:17:12;3.00;;;1.47;;
15155;SDS011;7678;50.058;8.306;2023-03-23T04:19:40;1.63;;;1.50;;
15155;SDS011;7678;50.058;8.306;2023-03-23T04:22:06;2.73;;;1.83;;
15155;SDS011;7678;50.058;8.306;2023-03-23T04:24:35;3.47;;;1.70;;
15155;SDS011;7678;50.058;8.306;2023-03-23T04:27:02;3.43;;;1.80;;
15155;SDS011;7678;50.058;8.306;2023-03-23T04:29:30;4.07;;;1.90;;
15155;SDS011;7678;50.058;8.306;2023-03-23T04:31:59;3.13;;;1.97;;
15155;SDS011;7678;50.058;8.306;2023-03-23T04:34:26;3.83;;;1.90;;
15155;SDS011;7678;50.058;8.306;2023-03-23T04:36:59;4.87;;;1.67;;
15155;SDS011;7678;50.058;8.306;2023-03-23T04:39:26;3.03;;;1.53;;
15155;SDS011;7678;50.058;8.306;2023-03-23T04:41:55;2.27;;;1.50;;
15155;SDS011;7678;50.058;8.306;2023-03-23T04:44:26;2.27;;;1.50;;
15155;SDS011;7678;50.058;8.306;2023-03-23T04:46:54;1.93;;;1.27;;
15155;SDS011;7678;50.058;8.306;2023-03-23T04:49:21;3.63;;;1.97;;
15155;SDS011;7678;50.058;8.306;2023-03-23T04:51:48;4.00;;;1.70;;
15155;SDS011;7678;50.058;8.306;2023-03-23T04:54:15;2.37;;;1.30;;
15155;SDS011;7678;50.058;8.306;2023-03-23T04:56:43;1.97;;;1.37;;
15155;SDS011;7678;50.058;8.306;2023-03-23T04:59:11;2.80;;;1.40;;
15155;SDS011;7678;50.058;8.306;2023-03-23T05:01:40;3.53;;;1.70;;
15155;SDS011;7678;50.058;8.306;2023-03-23T05:04:11;2.37;;;1.40;;
15155;SDS011;7678;50.058;8.306;2023-03-23T05:06:41;2.83;;;1.53;;
15155;SDS011;7678;50.058;8.306;2023-03-23T05:09:10;3.43;;;1.40;;
15155;SDS011;7678;50.058;8.306;2023-03-23T05:11:38;3.20;;;1.50;;
15155;SDS011;7678;50.058;8.306;2023-03-23T05:14:05;1.70;;;1.30;;
15155;SDS011;7678;50.058;8.306;2023-03-23T05:16:35;2.30;;;1.43;;
15155;SDS011;7678;50.058;8.306;2023-03-23T05:19:02;3.23;;;1.67;;
15155;SDS011;7678;50.058;8.306;2023-03-23T05:21:29;4.73;;;1.73;;
15155;SDS011;7678;50.058;8.306;2023-03-23T05:23:58;3.33;;;1.77;;
15155;SDS011;7678;50.058;8.306;2023-03-23T05:26:26;2.47;;;1.60;;
15155;SDS011;7678;50.058;8.306;2023-03-23T05:28:54;2.83;;;1.40;;
15155;SDS011;7678;50.058;8.306;2023-03-23T05:31:21;5.93;;;2.33;;
15155;SDS011;7678;50.058;8.306;2023-03-23T05:33:50;3.70;;;1.73;;
15155;SDS011;7678;50.058;8.306;2023-03-23T05:36:18;3.17;;;1.40;;
15155;SDS011;7678;50.058;8.306;2023-03-23T05:38:45;5.07;;;1.80;;
15155;SDS011;7678;50.058;8.306;2023-03-23T05:41:13;3.57;;;1.80;;
15155;SDS011;7678;50.058;8.306;2023-03-23T05:43:40;2.30;;;1.43;;
15155;SDS011;7678;50.058;8.306;2023-03-23T05:46:07;4.10;;;1.87;;
15155;SDS011;7678;50.058;8.306;2023-03-23T05:48:34;3.20;;;1.70;;
15155;SDS011;7678;50.058;8.306;2023-03-23T05:51:04;2.43;;;1.70;;
15155;SDS011;7678;50.058;8.306;2023-03-23T05:53:31;3.30;;;1.90;;
15155;SDS011;7678;50.058;8.306;2023-03-23T05:55:59;2.07;;;1.57;;
15155;SDS011;7678;50.058;8.306;2023-03-23T05:58:26;5.87;;;1.83;;
15155;SDS011;7678;50.058;8.306;2023-03-23T06:01:08;4.53;;;1.60;;
15155;SDS011;7678;50.058;8.306;2023-03-23T06:03:39;3.93;;;2.10;;
15155;SDS011;7678;50.058;8.306;2023-03-23T06:06:08;3.07;;;1.53;;
15155;SDS011;7678;50.058;8.306;2023-03-23T06:08:36;3.73;;;1.97;;
15155;SDS011;7678;50.058;8.306;2023-03-23T06:11:04;3.83;;;2.10;;
15155;SDS011;7678;50.058;8.306;2023-03-23T06:13:32;3.77;;;1.90;;
15155;SDS011;7678;50.058;8.306;2023-03-23T06:15:59;2.00;;;1.70;;
15155;SDS011;7678;50.058;8.306;2023-03-23T06:18:26;2.17;;;1.80;;
15155;SDS011;7678;50.058;8.306;2023-03-23T06:20:53;3.73;;;1.80;;
15155;SDS011;7678;50.058;8.306;2023-03-23T06:23:22;2.90;;;2.00;;
15155;SDS011;7678;50.058;8.306;2023-03-23T06:25:49;2.27;;;1.60;;
15155;SDS011;7678;50.058;8.306;2023-03-23T06:28:19;3.63;;;2.10;;
15155;SDS011;7678;50.058;8.306;2023-03-23T06:30:46;3.37;;;1.77;;
15155;SDS011;7678;50.058;8.306;2023-03-23T06:33:13;3.67;;;1.67;;
15155;SDS011;7678;50.058;8.306;2023-03-23T06:35:40;3.00;;;2.00;;
15155;SDS011;7678;50.058;8.306;2023-03-23T06:38:08;3.27;;;1.70;;
15155;SDS011;7678;50.058;8.306;2023-03-23T06:40:36;2.50;;;1.70;;
15155;SDS011;7678;50.058;8.306;2023-03-23T06:43:03;2.23;;;1.80;;
15155;SDS011;7678;50.058;8.306;2023-03-23T06:45:30;3.03;;;1.73;;
15155;SDS011;7678;50.058;8.306;2023-03-23T06:47:57;5.70;;;1.90;;
15155;SDS011;7678;50.058;8.306;2023-03-23T06:50:24;5.07;;;2.10;;
15155;SDS011;7678;50.058;8.306;2023-03-23T06:52:52;4.00;;;2.03;;
15155;SDS011;7678;50.058;8.306;2023-03-23T06:55:19;2.57;;;1.80;;
15155;SDS011;7678;50.058;8.306;2023-03-23T06:57:47;3.10;;;1.80;;
15155;SDS011;7678;50.058;8.306;2023-03-23T07:00:14;3.37;;;1.80;;
15155;SDS011;7678;50.058;8.306;2023-03-23T07:02:42;4.43;;;1.60;;
15155;SDS011;7678;50.058;8.306;2023-03-23T07:05:10;4.53;;;2.10;;
15155;SDS011;7678;50.058;8.306;2023-03-23T07:07:38;6.07;;;1.90;;
15155;SDS011;7678;50.058;8.306;2023-03-23T07:10:07;5.43;;;1.90;;
15155;SDS011;7678;50.058;8.306;2023-03-23T07:12:35;3.63;;;2.10;;
15155;SDS011;7678;50.058;8.306;2023-03-23T07:15:03;5.43;;;2.50;;
15155;SDS011;7678;50.058;8.306;2023-03-23T07:17:33;4.43;;;2.20;;
15155;SDS011;7678;50.058;8.306;2023-03-23T07:20:00;6.67;;;2.73;;
15155;SDS011;7678;50.058;8.306;2023-03-23T07:22:27;3.50;;;2.47;;
15155;SDS011;7678;50.058;8.306;2023-03-23T07:24:54;4.07;;;2.37;;
15155;SDS011;7678;50.058;8.306;2023-03-23T07:27:22;3.60;;;2.37;;
15155;SDS011;7678;50.058;8.306;2023-03-23T07:29:50;3.20;;;2.20;;
15155;SDS011;7678;50.058;8.306;2023-03-23T07:32:18;4.00;;;2.37;;
15155;SDS011;7678;50.058;8.306;2023-03-23T07:34:45;3.57;;;2.50;;
15155;SDS011;7678;50.058;8.306;2023-03-23T07:37:12;4.53;;;3.03;;
15155;SDS011;7678;50.058;8.306;2023-03-23T07:39:39;3.77;;;2.87;;
15155;SDS011;7678;50.058;8.306;2023-03-23T07:42:07;4.93;;;2.90;;
15155;SDS011;7678;50.058;8.306;2023-03-23T07:44:34;4.27;;;2.37;;
15155;SDS011;7678;50.058;8.306;2023-03-23T07:47:02;3.93;;;2.40;;
15155;SDS011;7678;50.058;8.306;2023-03-23T07:49:30;3.43;;;2.43;;
15155;SDS011;7678;50.058;8.306;2023-03-23T07:51:58;4.57;;;2.33;;
15155;SDS011;7678;50.058;8.306;2023-03-23T07:54:47;3.20;;;2.27;;
15155;SDS011;7678;50.058;8.306;2023-03-23T07:57:14;7.27;;;2.30;;
15155;SDS011;7678;50.058;8.306;2023-03-23T07:59:41;4.40;;;2.30;;
15155;SDS011;7678;50.058;8.306;2023-03-23T08:02:08;3.73;;;2.20;;
15155;SDS011;7678;50.058;8.306;2023-03-23T08:04:37;5.63;;;2.70;;
15155;SDS011;7678;50.058;8.306;2023-03-23T08:07:05;2.70;;;1.93;;
15155;SDS011;7678;50.058;8.306;2023-03-23T08:09:32;3.40;;;2.60;;
15155;SDS011;7678;50.058;8.306;2023-03-23T08:11:59;3.93;;;2.60;;
15155;SDS011;7678;50.058;8.306;2023-03-23T08:14:26;2.63;;;1.93;;
15155;SDS011;7678;50.058;8.306;2023-03-23T08:16:53;3.47;;;2.47;;
15155;SDS011;7678;50.058;8.306;2023-03-23T08:19:21;3.20;;;2.40;;
15155;SDS011;7678;50.058;8.306;2023-03-23T08:21:50;4.10;;;2.23;;
15155;SDS011;7678;50.058;8.306;2023-03-23T08:24:17;3.70;;;2.23;;
15155;SDS011;7678;50.058;8.306;2023-03-23T08:26:47;6.77;;;2.43;;
15155;SDS011;7678;50.058;8.306;2023-03-23T08:29:18;5.30;;;2.40;;
15155;SDS011;7678;50.058;8.306;2023-03-23T08:31:50;3.23;;;2.10;;
15155;SDS011;7678;50.058;8.306;2023-03-23T08:34:20;4.43;;;2.30;;
15155;SDS011;7678;50.058;8.306;2023-03-23T08:36:47;4.07;;;2.20;;
15155;SDS011;7678;50.058;8.306;2023-03-23T08:39:16;4.43;;;2.50;;
15155;SDS011;7678;50.058;8.306;2023-03-23T08:41:44;6.73;;;2.50;;
15155;SDS011;7678;50.058;8.306;2023-03-23T08:44:11;4.73;;;2.70;;
15155;SDS011;7678;50.058;8.306;2023-03-23T08:46:38;3.83;;;2.57;;
15155;SDS011;7678;50.058;8.306;2023-03-23T08:49:05;4.63;;;2.27;;
15155;SDS011;7678;50.058;8.306;2023-03-23T08:51:33;3.93;;;2.17;;
15155;SDS011;7678;50.058;8.306;2023-03-23T08:54:02;2.57;;;1.83;;
15155;SDS011;7678;50.058;8.306;2023-03-23T08:56:31;5.10;;;2.17;;
15155;SDS011;7678;50.058;8.306;2023-03-23T08:58:58;2.63;;;1.90;;
15155;SDS011;7678;50.058;8.306;2023-03-23T09:01:25;4.27;;;2.20;;
15155;SDS011;7678;50.058;8.306;2023-03-23T09:03:51;2.67;;;1.97;;
15155;SDS011;7678;50.058;8.306;2023-03-23T09:06:19;7.83;;;2.17;;
15155;SDS011;7678;50.058;8.306;2023-03-23T09:08:46;4.47;;;1.73;;
15155;SDS011;7678;50.058;8.306;2023-03-23T09:11:15;3.07;;;1.90;;
15155;SDS011;7678;50.058;8.306;2023-03-23T09:13:42;2.53;;;2.00;;
15155;SDS011;7678;50.058;8.306;2023-03-23T09:16:09;3.73;;;2.07;;
15155;SDS011;7678;50.058;8.306;2023-03-23T09:18:36;5.10;;;2.03;;
15155;SDS011;7678;50.058;8.306;2023-03-23T09:21:04;6.00;;;1.87;;
15155;SDS011;7678;50.058;8.306;2023-03-23T09:23:31;3.20;;;1.73;;
15155;SDS011;7678;50.058;8.306;2023-03-23T09:25:59;2.17;;;1.30;;
15155;SDS011;7678;50.058;8.306;2023-03-23T09:28:28;1.43;;;1.20;;
15155;SDS011;7678;50.058;8.306;2023-03-23T09:30:57;1.90;;;1.30;;
15155;SDS011;7678;50.058;8.306;2023-03-23T09:33:24;1.30;;;1.00;;
15155;SDS011;7678;50.058;8.306;2023-03-23T09:35:55;3.43;;;1.10;;
15155;SDS011;7678;50.058;8.306;2023-03-23T09:38:23;1.60;;;1.00;;
15155;SDS011;7678;50.058;8.306;2023-03-23T09:41:07;2.40;;;1.20;;
15155;SDS011;7678;50.058;8.306;2023-03-23T09:43:51;1.27;;;0.97;;
15155;SDS011;7678;50.058;8.306;2023-03-23T09:46:33;4.50;;;0.90;;
15155;SDS011;7678;50.058;8.306;2023-03-23T09:49:09;1.43;;;1.00;;
15155;SDS011;7678;50.058;8.306;2023-03-23T09:51:42;1.87;;;1.07;;
15155;SDS011;7678;50.058;8.306;2023-03-23T09:54:14;3.50;;;1.10;;
15155;SDS011;7678;50.058;8.306;2023-03-23T09:56:46;1.70;;;1.07;;
15155;SDS011;7678;50.058;8.306;2023-03-23T09:59:18;1.07;;;0.83;;
15155;SDS011;7678;50.058;8.306;2023-03-23T10:01:48;3.27;;;1.40;;
15155;SDS011;7678;50.058;8.306;2023-03-23T10:04:25;1.20;;;1.10;;
15155;SDS011;7678;50.058;8.306;2023-03-23T10:06:58;2.60;;;1.20;;
15155;SDS011;7678;50.058;8.306;2023-03-23T10:09:31;1.27;;;1.00;;
15155;SDS011;7678;50.058;8.306;2023-03-23T10:12:00;1.37;;;1.13;;
15155;SDS011;7678;50.058;8.306;2023-03-23T10:14:39;2.07;;;1.20;;
15155;SDS011;7678;50.058;8.306;2023-03-23T10:17:16;3.93;;;1.40;;
15155;SDS011;7678;50.058;8.306;2023-03-23T10:19:49;1.57;;;1.30;;
15155;SDS011;7678;50.058;8.306;2023-03-23T10:22:22;1.90;;;1.17;;
15155;SDS011;7678;50.058;8.306;2023-03-23T10:24:57;1.30;;;1.10;;
15155;SDS011;7678;50.058;8.306;2023-03-23T10:27:33;2.13;;;1.10;;
15155;SDS011;7678;50.058;8.306;2023-03-23T10:30:11;1.43;;;1.03;;
15155;SDS011;7678;50.058;8.306;2023-03-23T10:32:43;1.60;;;1.00;;
15155;SDS011;7678;50.058;8.306;2023-03-23T10:35:16;2.00;;;1.33;;
15155;SDS011;7678;50.058;8.306;2023-03-23T10:37:47;2.97;;;1.10;;
15155;SDS011;7678;50.058;8.306;2023-03-23T10:40:16;1.13;;;0.97;;
15155;SDS011;7678;50.058;8.306;2023-03-23T10:42:46;2.23;;;0.93;;
15155;SDS011;7678;50.058;8.306;2023-03-23T10:45:17;2.03;;;1.20;;
15155;SDS011;7678;50.058;8.306;2023-03-23T10:47:48;4.43;;;2.03;;
15155;SDS011;7678;50.058;8.306;2023-03-23T10:50:22;1.00;;;0.87;;
15155;SDS011;7678;50.058;8.306;2023-03-23T10:52:52;1.97;;;0.90;;
15155;SDS011;7678;50.058;8.306;2023-03-23T10:55:23;1.33;;;0.90;;
15155;SDS011;7678;50.058;8.306;2023-03-23T10:58:01;2.90;;;1.07;;
15155;SDS011;7678;50.058;8.306;2023-03-23T11:03:41;1.60;;;1.27;;
15155;SDS011;7678;50.058;8.306;2023-03-23T11:06:26;3.10;;;1.43;;
15155;SDS011;7678;50.058;8.306;2023-03-23T11:08:56;2.37;;;2.00;;
15155;SDS011;7678;50.058;8.306;2023-03-23T11:11:29;3.13;;;1.70;;
15155;SDS011;7678;50.058;8.306;2023-03-23T11:14:16;1.60;;;1.40;;
15155;SDS011;7678;50.058;8.306;2023-03-23T11:16:49;1.93;;;1.00;;
15155;SDS011;7678;50.058;8.306;2023-03-23T11:19:22;1.13;;;1.00;;
15155;SDS011;7678;50.058;8.306;2023-03-23T11:21:52;2.30;;;1.20;;
15155;SDS011;7678;50.058;8.306;2023-03-23T11:24:21;3.67;;;1.30;;
15155;SDS011;7678;50.058;8.306;2023-03-23T11:26:49;2.30;;;1.13;;
15155;SDS011;7678;50.058;8.306;2023-03-23T11:29:18;1.90;;;0.77;;
15155;SDS011;7678;50.058;8.306;2023-03-23T11:31:50;1.17;;;0.93;;
15155;SDS011;7678;50.058;8.306;2023-03-23T11:34:20;2.47;;;1.03;;
15155;SDS011;7678;50.058;8.306;2023-03-23T11:36:49;1.77;;;1.00;;
15155;SDS011;7678;50.058;8.306;2023-03-23T11:39:21;2.80;;;1.10;;
15155;SDS011;7678;50.058;8.306;2023-03-23T11:41:51;3.57;;;1.20;;
15155;SDS011;7678;50.058;8.306;2023-03-23T11:44:20;1.57;;;1.10;;
15155;SDS011;7678;50.058;8.306;2023-03-23T11:46:55;2.27;;;0.93;;
15155;SDS011;7678;50.058;8.306;2023-03-23T11:49:34;1.97;;;1.00;;
15155;SDS011;7678;50.058;8.306;2023-03-23T11:52:16;1.47;;;0.90;;
15155;SDS011;7678;50.058;8.306;2023-03-23T11:54:52;3.13;;;0.97;;
15155;SDS011;7678;50.058;8.306;2023-03-23T11:57:37;0.97;;;0.80;;
15155;SDS011;7678;50.058;8.306;2023-03-23T12:00:12;2.50;;;0.90;;
15155;SDS011;7678;50.058;8.306;2023-03-23T12:05:52;1.40;;;0.83;;
15155;SDS011;7678;50.058;8.306;2023-03-23T12:08:37;1.43;;;0.90;;
15155;SDS011;7678;50.058;8.306;2023-03-23T12:11:19;1.80;;;1.00;;
15155;SDS011;7678;50.058;8.306;2023-03-23T12:14:13;1.27;;;1.00;;
15155;SDS011;7678;50.058;8.306;2023-03-23T12:16:56;1.00;;;0.77;;
15155;SDS011;7678;50.058;8.306;2023-03-23T12:19:36;1.43;;;0.90;;
15155;SDS011;7678;50.058;8.306;2023-03-23T12:22:27;1.33;;;1.00;;
15155;SDS011;7678;50.058;8.306;2023-03-23T12:25:12;1.10;;;0.80;;
15155;SDS011;7678;50.058;8.306;2023-03-23T12:28:05;3.20;;;1.07;;
15155;SDS011;7678;50.058;8.306;2023-03-23T12:30:38;2.43;;;0.90;;
15155;SDS011;7678;50.058;8.306;2023-03-23T12:33:19;2.60;;;1.00;;
15155;SDS011;7678;50.058;8.306;2023-03-23T12:36:17;1.67;;;1.00;;
15155;SDS011;7678;50.058;8.306;2023-03-23T12:39:04;1.10;;;1.00;;
15155;SDS011;7678;50.058;8.306;2023-03-23T12:42:09;2.30;;;0.97;;
15155;SDS011;7678;50.058;8.306;2023-03-23T12:44:46;2.50;;;1.00;;
15155;SDS011;7678;50.058;8.306;2023-03-23T12:50:05;1.03;;;0.87;;
15155;SDS011;7678;50.058;8.306;2023-03-23T12:52:37;2.07;;;1.10;;
15155;SDS011;7678;50.058;8.306;2023-03-23T12:55:14;1.07;;;0.97;;
15155;SDS011;7678;50.058;8.306;2023-03-23T12:57:48;1.80;;;1.17;;
15155;SDS011;7678;50.058;8.306;2023-03-23T13:00:20;2.43;;;1.13;;
15155;SDS011;7678;50.058;8.306;2023-03-23T13:02:51;1.50;;;1.10;;
15155;SDS011;7678;50.058;8.306;2023-03-23T13:05:27;2.17;;;1.20;;
15155;SDS011;7678;50.058;8.306;2023-03-23T13:08:03;1.57;;;1.07;;
15155;SDS011;7678;50.058;8.306;2023-03-23T13:10:38;1.00;;;0.90;;
15155;SDS011;7678;50.058;8.306;2023-03-23T13:13:10;1.37;;;1.00;;
15155;SDS011;7678;50.058;8.306;2023-03-23T13:15:44;5.43;;;1.20;;
15155;SDS011;7678;50.058;8.306;2023-03-23T13:18:20;1.10;;;0.73;;
15155;SDS011;7678;50.058;8.306;2023-03-23T13:20:55;1.47;;;1.00;;
15155;SDS011;7678;50.058;8.306;2023-03-23T13:23:29;1.80;;;1.10;;
15155;SDS011;7678;50.058;8.306;2023-03-23T13:26:01;1.10;;;1.00;;
15155;SDS011;7678;50.058;8.306;2023-03-23T13:28:31;1.00;;;0.87;;
15155;SDS011;7678;50.058;8.306;2023-03-23T13:31:00;1.60;;;0.90;;
15155;SDS011;7678;50.058;8.306;2023-03-23T13:33:30;1.30;;;1.00;;
15155;SDS011;7678;50.058;8.306;2023-03-23T13:36:08;2.03;;;0.80;;
15155;SDS011;7678;50.058;8.306;2023-03-23T13:38:38;3.03;;;1.53;;
15155;SDS011;7678;50.058;8.306;2023-03-23T13:41:13;2.63;;;1.27;;
15155;SDS011;7678;50.058;8.306;2023-03-23T13:43:42;2.60;;;1.10;;
15155;SDS011;7678;50.058;8.306;2023-03-23T13:46:11;2.80;;;1.33;;
15155;SDS011;7678;50.058;8.306;2023-03-23T13:48:50;5.00;;;1.10;;
15155;SDS011;7678;50.058;8.306;2023-03-23T13:51:33;1.80;;;1.10;;
15155;SDS011;7678;50.058;8.306;2023-03-23T13:56:55;2.00;;;1.10;;
15155;SDS011;7678;50.058;8.306;2023-03-23T13:59:31;1.43;;;1.00;;
15155;SDS011;7678;50.058;8.306;2023-03-23T14:05:23;1.90;;;1.00;;
15155;SDS011;7678;50.058;8.306;2023-03-23T14:08:01;1.30;;;1.13;;
15155;SDS011;7678;50.058;8.306;2023-03-23T14:10:36;2.43;;;1.00;;
15155;SDS011;7678;50.058;8.306;2023-03-23T14:13:10;2.60;;;0.90;;
15155;SDS011;7678;50.058;8.306;2023-03-23T14:15:43;1.73;;;1.20;;
15155;SDS011;7678;50.058;8.306;2023-03-23T14:18:19;1.43;;;0.90;;
15155;SDS011;7678;50.058;8.306;2023-03-23T14:20:50;1.50;;;1.17;;
15155;SDS011;7678;50.058;8.306;2023-03-23T14:23:18;2.17;;;1.13;;
15155;SDS011;7678;50.058;8.306;2023-03-23T14:25:53;2.53;;;1.00;;
15155;SDS011;7678;50.058;8.306;2023-03-23T14:28:26;3.03;;;1.53;;
15155;SDS011;7678;50.058;8.306;2023-03-23T14:30:54;1.83;;;1.07;;
15155;SDS011;7678;50.058;8.306;2023-03-23T14:33:22;4.27;;;1.40;;
15155;SDS011;7678;50.058;8.306;2023-03-23T14:35:52;2.13;;;1.20;;
15155;SDS011;7678;50.058;8.306;2023-03-23T14:38:20;3.13;;;0.93;;
15155;SDS011;7678;50.058;8.306;2023-03-23T14:40:51;3.03;;;1.17;;
15155;SDS011;7678;50.058;8.306;2023-03-23T14:43:20;3.60;;;1.43;;
15155;SDS011;7678;50.058;8.306;2023-03-23T14:45:51;3.27;;;1.10;;
15155;SDS011;7678;50.058;8.306;2023-03-23T14:48:20;1.33;;;1.20;;
15155;SDS011;7678;50.058;8.306;2023-03-23T14:50:51;3.53;;;1.20;;
15155;SDS011;7678;50.058;8.306;2023-03-23T14:53:19;1.67;;;1.10;;
15155;SDS011;7678;50.058;8.306;2023-03-23T14:55:49;2.10;;;1.20;;
15155;SDS011;7678;50.058;8.306;2023-03-23T14:58:18;2.63;;;1.17;;
15155;SDS011;7678;50.058;8.306;2023-03-23T15:00:49;1.90;;;1.10;;
15155;SDS011;7678;50.058;8.306;2023-03-23T15:03:21;3.30;;;1.50;;
15155;SDS011;7678;50.058;8.306;2023-03-23T15:05:50;5.27;;;1.57;;
15155;SDS011;7678;50.058;8.306;2023-03-23T15:08:20;4.80;;;1.20;;
15155;SDS011;7678;50.058;8.306;2023-03-23T15:10:55;5.10;;;1.40;;
15155;SDS011;7678;50.058;8.306;2023-03-23T15:13:29;4.73;;;1.20;;
15155;SDS011;7678;50.058;8.306;2023-03-23T15:16:02;3.10;;;1.50;;
15155;SDS011;7678;50.058;8.306;2023-03-23T15:18:32;2.37;;;1.20;;
15155;SDS011;7678;50.058;8.306;2023-03-23T15:21:08;6.37;;;1.23;;
15155;SDS011;7678;50.058;8.306;2023-03-23T15:23:41;4.10;;;1.30;;
15155;SDS011;7678;50.058;8.306;2023-03-23T15:26:17;3.63;;;1.20;;
15155;SDS011;7678;50.058;8.306;2023-03-23T15:28:58;5.60;;;1.47;;
15155;SDS011;7678;50.058;8.306;2023-03-23T15:31:29;6.27;;;1.60;;
15155;SDS011;7678;50.058;8.306;2023-03-23T15:33:56;8.03;;;1.53;;
15155;SDS011;7678;50.058;8.306;2023-03-23T15:36:30;2.20;;;1.20;;
15155;SDS011;7678;50.058;8.306;2023-03-23T15:38:58;3.47;;;1.30;;
15155;SDS011;7678;50.058;8.306;2023-03-23T15:41:26;1.87;;;1.27;;
15155;SDS011;7678;50.058;8.306;2023-03-23T15:43:56;6.73;;;1.20;;